sensor_id;sensor_type;location;lat;lon;timestamp;P1;durP1;ratioP1;P2;durP2;ratioP2
4794;SDS011;2411;47.060;15.064;2023-09-30T00:02:05;6.17;;;5.57;;
4794;SDS011;2411;47.060;15.064;2023-09-30T00:04:32;7.10;;;5.30;;
4794;SDS011;2411;47.060;15.064;2023-09-30T00:07:00;6.33;;;4.90;;
4794;SDS011;2411;47.060;15.064;2023-09-30T00:09:27;6.43;;;5.60;;
4794;SDS011;2411;47.060;15.064;2023-09-30T00:11:55;5.53;;;5.00;;
4794;SDS011;2411;47.060;15.064;2023-09-30T00:14:22;7.00;;;5.57;;
4794;SDS011;2411;47.060;15.064;2023-09-30T00:16:49;6.20;;;5.60;;
4794;SDS011;2411;47.060;15.064;2023-09-30T00:19:17;6.83;;;4.90;;
4794;SDS011;2411;47.060;15.064;2023-09-30T00:21:45;4.67;;;4.27;;
4794;SDS011;2411;47.060;15.064;2023-09-30T00:24:12;5.03;;;4.63;;
4794;SDS011;2411;47.060;15.064;2023-09-30T00:26:40;5.83;;;5.10;;
4794;SDS011;2411;47.060;15.064;2023-09-30T00:29:08;6.03;;;5.40;;
4794;SDS011;2411;47.060;15.064;2023-09-30T00:31:37;5.17;;;4.77;;
4794;SDS011;2411;47.060;15.064;2023-09-30T00:34:04;4.60;;;4.23;;
4794;SDS011;2411;47.060;15.064;2023-09-30T00:36:31;5.30;;;4.90;;
4794;SDS011;2411;47.060;15.064;2023-09-30T00:38:58;7.20;;;5.53;;
4794;SDS011;2411;47.060;15.064;2023-09-30T00:41:26;7.90;;;4.70;;
4794;SDS011;2411;47.060;15.064;2023-09-30T00:43:53;5.10;;;4.60;;
4794;SDS011;2411;47.060;15.064;2023-09-30T00:46:31;5.80;;;5.20;;
4794;SDS011;2411;47.060;15.064;2023-09-30T00:48:59;5.50;;;4.83;;
4794;SDS011;2411;47.060;15.064;2023-09-30T00:51:29;5.70;;;5.10;;
4794;SDS011;2411;47.060;15.064;2023-09-30T00:53:59;4.27;;;4.03;;
4794;SDS011;2411;47.060;15.064;2023-09-30T00:56:28;5.43;;;5.03;;
4794;SDS011;2411;47.060;15.064;2023-09-30T00:58:56;4.60;;;4.20;;
4794;SDS011;2411;47.060;15.064;2023-09-30T01:01:25;4.77;;;4.37;;
4794;SDS011;2411;47.060;15.064;2023-09-30T01:03:53;5.40;;;4.90;;
4794;SDS011;2411;47.060;15.064;2023-09-30T01:06:20;4.47;;;4.17;;
4794;SDS011;2411;47.060;15.064;2023-09-30T01:08:48;5.20;;;4.70;;
4794;SDS011;2411;47.060;15.064;2023-09-30T01:11:15;6.40;;;5.23;;
4794;SDS011;2411;47.060;15.064;2023-09-30T01:13:43;5.30;;;4.77;;
4794;SDS011;2411;47.060;15.064;2023-09-30T01:16:11;7.50;;;4.33;;
4794;SDS011;2411;47.060;15.064;2023-09-30T01:18:39;5.13;;;4.73;;
4794;SDS011;2411;47.060;15.064;2023-09-30T01:21:10;4.80;;;4.40;;
4794;SDS011;2411;47.060;15.064;2023-09-30T01:23:38;5.53;;;4.43;;
4794;SDS011;2411;47.060;15.064;2023-09-30T01:26:08;5.10;;;4.70;;
4794;SDS011;2411;47.060;15.064;2023-09-30T01:28:39;5.87;;;4.30;;
4794;SDS011;2411;47.060;15.064;2023-09-30T01:31:07;6.03;;;4.40;;
4794;SDS011;2411;47.060;15.064;2023-09-30T01:33:34;5.30;;;4.80;;
4794;SDS011;2411;47.060;15.064;2023-09-30T01:36:02;9.07;;;4.43;;
4794;SDS011;2411;47.060;15.064;2023-09-30T01:38:29;5.67;;;4.90;;
4794;SDS011;2411;47.060;15.064;2023-09-30T01:40:57;5.07;;;4.63;;
4794;SDS011;2411;47.060;15.064;2023-09-30T01:43:27;6.33;;;4.67;;
4794;SDS011;2411;47.060;15.064;2023-09-30T01:45:54;4.83;;;4.37;;
4794;SDS011;2411;47.060;15.064;2023-09-30T01:48:22;4.73;;;4.17;;
4794;SDS011;2411;47.060;15.064;2023-09-30T01:50:49;5.60;;;4.00;;
4794;SDS011;2411;47.060;15.064;2023-09-30T01:53:17;5.90;;;4.10;;
4794;SDS011;2411;47.060;15.064;2023-09-30T01:55:44;4.73;;;4.33;;
4794;SDS011;2411;47.060;15.064;2023-09-30T01:58:12;6.67;;;4.40;;
4794;SDS011;2411;47.060;15.064;2023-09-30T02:00:39;4.63;;;4.23;;
4794;SDS011;2411;47.060;15.064;2023-09-30T02:03:06;4.80;;;3.87;;
4794;SDS011;2411;47.060;15.064;2023-09-30T02:05:34;4.27;;;3.97;;
4794;SDS011;2411;47.060;15.064;2023-09-30T02:08:03;5.37;;;4.93;;
4794;SDS011;2411;47.060;15.064;2023-09-30T02:10:32;4.63;;;4.23;;
4794;SDS011;2411;47.060;15.064;2023-09-30T02:13:00;5.30;;;4.90;;
4794;SDS011;2411;47.060;15.064;2023-09-30T02:15:28;4.63;;;4.23;;
4794;SDS011;2411;47.060;15.064;2023-09-30T02:17:55;4.77;;;4.00;;
4794;SDS011;2411;47.060;15.064;2023-09-30T02:20:23;7.67;;;4.13;;
4794;SDS011;2411;47.060;15.064;2023-09-30T02:22:52;5.10;;;4.30;;
4794;SDS011;2411;47.060;15.064;2023-09-30T02:25:21;6.73;;;4.33;;
4794;SDS011;2411;47.060;15.064;2023-09-30T02:27:49;4.97;;;4.57;;
4794;SDS011;2411;47.060;15.064;2023-09-30T02:30:16;4.90;;;4.37;;
4794;SDS011;2411;47.060;15.064;2023-09-30T02:32:44;4.83;;;4.43;;
4794;SDS011;2411;47.060;15.064;2023-09-30T02:35:13;5.40;;;3.83;;
4794;SDS011;2411;47.060;15.064;2023-09-30T02:37:42;4.20;;;3.80;;
4794;SDS011;2411;47.060;15.064;2023-09-30T02:40:10;4.50;;;4.00;;
4794;SDS011;2411;47.060;15.064;2023-09-30T02:42:38;4.93;;;4.50;;
4794;SDS011;2411;47.060;15.064;2023-09-30T02:45:07;4.87;;;4.47;;
4794;SDS011;2411;47.060;15.064;2023-09-30T02:47:35;4.60;;;4.20;;
4794;SDS011;2411;47.060;15.064;2023-09-30T02:50:07;7.43;;;4.50;;
4794;SDS011;2411;47.060;15.064;2023-09-30T02:52:38;4.70;;;4.30;;
4794;SDS011;2411;47.060;15.064;2023-09-30T02:55:08;5.30;;;4.30;;
4794;SDS011;2411;47.060;15.064;2023-09-30T02:57:36;4.50;;;4.10;;
4794;SDS011;2411;47.060;15.064;2023-09-30T03:00:05;4.10;;;3.70;;
4794;SDS011;2411;47.060;15.064;2023-09-30T03:02:51;4.30;;;3.90;;
4794;SDS011;2411;47.060;15.064;2023-09-30T03:05:32;6.93;;;3.67;;
4794;SDS011;2411;47.060;15.064;2023-09-30T03:08:00;5.70;;;3.77;;
4794;SDS011;2411;47.060;15.064;2023-09-30T03:10:28;5.90;;;3.60;;
4794;SDS011;2411;47.060;15.064;2023-09-30T03:12:56;4.20;;;3.80;;
4794;SDS011;2411;47.060;15.064;2023-09-30T03:15:28;3.97;;;3.67;;
4794;SDS011;2411;47.060;15.064;2023-09-30T03:18:00;4.10;;;3.80;;
4794;SDS011;2411;47.060;15.064;2023-09-30T03:20:28;4.27;;;3.97;;
4794;SDS011;2411;47.060;15.064;2023-09-30T03:22:57;5.10;;;4.30;;
4794;SDS011;2411;47.060;15.064;2023-09-30T03:25:25;5.40;;;5.00;;
4794;SDS011;2411;47.060;15.064;2023-09-30T03:27:53;5.90;;;4.83;;
4794;SDS011;2411;47.060;15.064;2023-09-30T03:30:21;4.53;;;4.13;;
4794;SDS011;2411;47.060;15.064;2023-09-30T03:32:48;3.90;;;3.70;;
4794;SDS011;2411;47.060;15.064;2023-09-30T03:35:15;6.20;;;4.30;;
4794;SDS011;2411;47.060;15.064;2023-09-30T03:37:46;3.63;;;3.33;;
4794;SDS011;2411;47.060;15.064;2023-09-30T03:40:14;5.17;;;4.77;;
4794;SDS011;2411;47.060;15.064;2023-09-30T03:42:46;5.40;;;4.03;;
4794;SDS011;2411;47.060;15.064;2023-09-30T03:45:17;5.67;;;4.03;;
4794;SDS011;2411;47.060;15.064;2023-09-30T03:47:45;3.53;;;3.23;;
4794;SDS011;2411;47.060;15.064;2023-09-30T03:50:16;8.17;;;3.40;;
4794;SDS011;2411;47.060;15.064;2023-09-30T03:52:43;7.30;;;3.40;;
4794;SDS011;2411;47.060;15.064;2023-09-30T03:55:14;8.10;;;3.60;;
4794;SDS011;2411;47.060;15.064;2023-09-30T03:57:47;3.67;;;3.27;;
4794;SDS011;2411;47.060;15.064;2023-09-30T04:00:15;6.40;;;5.90;;
4794;SDS011;2411;47.060;15.064;2023-09-30T04:02:47;5.33;;;3.50;;
4794;SDS011;2411;47.060;15.064;2023-09-30T04:05:18;4.70;;;3.90;;
4794;SDS011;2411;47.060;15.064;2023-09-30T04:07:46;5.40;;;3.57;;
4794;SDS011;2411;47.060;15.064;2023-09-30T04:10:14;5.70;;;3.77;;
4794;SDS011;2411;47.060;15.064;2023-09-30T04:12:43;6.90;;;4.00;;
4794;SDS011;2411;47.060;15.064;2023-09-30T04:15:10;4.50;;;4.10;;
4794;SDS011;2411;47.060;15.064;2023-09-30T04:17:39;4.80;;;4.00;;
4794;SDS011;2411;47.060;15.064;2023-09-30T04:20:07;6.70;;;4.43;;
4794;SDS011;2411;47.060;15.064;2023-09-30T04:22:44;4.33;;;3.93;;
4794;SDS011;2411;47.060;15.064;2023-09-30T04:25:16;8.63;;;4.07;;
4794;SDS011;2411;47.060;15.064;2023-09-30T04:27:44;7.13;;;3.90;;
4794;SDS011;2411;47.060;15.064;2023-09-30T04:30:15;4.30;;;3.90;;
4794;SDS011;2411;47.060;15.064;2023-09-30T04:32:45;5.17;;;4.20;;
4794;SDS011;2411;47.060;15.064;2023-09-30T04:35:12;4.30;;;4.00;;
4794;SDS011;2411;47.060;15.064;2023-09-30T04:37:40;4.33;;;3.73;;
4794;SDS011;2411;47.060;15.064;2023-09-30T04:40:07;5.03;;;3.87;;
4794;SDS011;2411;47.060;15.064;2023-09-30T04:42:42;4.17;;;3.20;;
4794;SDS011;2411;47.060;15.064;2023-09-30T04:45:11;10.03;;;3.27;;
4794;SDS011;2411;47.060;15.064;2023-09-30T04:47:47;5.00;;;3.83;;
4794;SDS011;2411;47.060;15.064;2023-09-30T04:50:17;4.10;;;3.80;;
4794;SDS011;2411;47.060;15.064;2023-09-30T04:52:49;5.17;;;3.43;;
4794;SDS011;2411;47.060;15.064;2023-09-30T04:55:20;9.07;;;4.20;;
4794;SDS011;2411;47.060;15.064;2023-09-30T04:57:47;4.20;;;3.90;;
4794;SDS011;2411;47.060;15.064;2023-09-30T05:00:16;4.40;;;4.00;;
4794;SDS011;2411;47.060;15.064;2023-09-30T05:02:45;4.67;;;3.63;;
4794;SDS011;2411;47.060;15.064;2023-09-30T05:05:13;8.60;;;3.80;;
4794;SDS011;2411;47.060;15.064;2023-09-30T05:07:42;4.33;;;3.47;;
4794;SDS011;2411;47.060;15.064;2023-09-30T05:10:10;4.43;;;4.03;;
4794;SDS011;2411;47.060;15.064;2023-09-30T05:12:40;4.60;;;3.67;;
4794;SDS011;2411;47.060;15.064;2023-09-30T05:15:16;4.03;;;3.73;;
4794;SDS011;2411;47.060;15.064;2023-09-30T05:17:47;3.97;;;3.37;;
4794;SDS011;2411;47.060;15.064;2023-09-30T05:20:15;4.03;;;3.37;;
4794;SDS011;2411;47.060;15.064;2023-09-30T05:22:44;5.30;;;3.40;;
4794;SDS011;2411;47.060;15.064;2023-09-30T05:25:13;5.50;;;3.93;;
4794;SDS011;2411;47.060;15.064;2023-09-30T05:27:45;4.13;;;3.83;;
4794;SDS011;2411;47.060;15.064;2023-09-30T05:30:16;4.70;;;3.87;;
4794;SDS011;2411;47.060;15.064;2023-09-30T05:32:43;4.33;;;3.83;;
4794;SDS011;2411;47.060;15.064;2023-09-30T05:35:13;9.30;;;4.03;;
4794;SDS011;2411;47.060;15.064;2023-09-30T05:37:44;5.30;;;3.53;;
4794;SDS011;2411;47.060;15.064;2023-09-30T05:40:12;3.27;;;2.97;;
4794;SDS011;2411;47.060;15.064;2023-09-30T05:42:50;9.90;;;3.70;;
4794;SDS011;2411;47.060;15.064;2023-09-30T05:45:19;4.93;;;3.93;;
4794;SDS011;2411;47.060;15.064;2023-09-30T05:47:46;5.03;;;4.20;;
4794;SDS011;2411;47.060;15.064;2023-09-30T05:50:18;3.50;;;3.20;;
4794;SDS011;2411;47.060;15.064;2023-09-30T05:52:50;3.77;;;3.47;;
4794;SDS011;2411;47.060;15.064;2023-09-30T05:55:18;6.57;;;3.60;;
4794;SDS011;2411;47.060;15.064;2023-09-30T05:57:49;3.00;;;2.80;;
4794;SDS011;2411;47.060;15.064;2023-09-30T06:00:17;5.53;;;3.23;;
4794;SDS011;2411;47.060;15.064;2023-09-30T06:03:03;5.13;;;3.40;;
4794;SDS011;2411;47.060;15.064;2023-09-30T06:05:34;4.40;;;3.53;;
4794;SDS011;2411;47.060;15.064;2023-09-30T06:08:05;3.50;;;3.20;;
4794;SDS011;2411;47.060;15.064;2023-09-30T06:10:37;3.67;;;3.37;;
4794;SDS011;2411;47.060;15.064;2023-09-30T06:13:10;5.20;;;3.93;;
4794;SDS011;2411;47.060;15.064;2023-09-30T06:15:38;6.40;;;5.57;;
4794;SDS011;2411;47.060;15.064;2023-09-30T06:18:07;6.30;;;4.20;;
4794;SDS011;2411;47.060;15.064;2023-09-30T06:20:36;3.47;;;3.17;;
4794;SDS011;2411;47.060;15.064;2023-09-30T06:23:03;4.57;;;4.10;;
4794;SDS011;2411;47.060;15.064;2023-09-30T06:25:31;3.87;;;3.47;;
4794;SDS011;2411;47.060;15.064;2023-09-30T06:28:00;6.37;;;3.90;;
4794;SDS011;2411;47.060;15.064;2023-09-30T06:30:27;4.90;;;4.40;;
4794;SDS011;2411;47.060;15.064;2023-09-30T06:33:00;9.90;;;4.80;;
4794;SDS011;2411;47.060;15.064;2023-09-30T06:35:28;8.37;;;4.87;;
4794;SDS011;2411;47.060;15.064;2023-09-30T06:38:04;7.70;;;5.03;;
4794;SDS011;2411;47.060;15.064;2023-09-30T06:40:34;8.23;;;4.63;;
4794;SDS011;2411;47.060;15.064;2023-09-30T06:43:06;14.03;;;4.70;;
4794;SDS011;2411;47.060;15.064;2023-09-30T06:45:34;7.47;;;5.40;;
4794;SDS011;2411;47.060;15.064;2023-09-30T06:48:09;8.40;;;4.70;;
4794;SDS011;2411;47.060;15.064;2023-09-30T06:50:39;8.60;;;5.70;;
4794;SDS011;2411;47.060;15.064;2023-09-30T06:53:10;6.47;;;4.80;;
4794;SDS011;2411;47.060;15.064;2023-09-30T06:55:41;6.73;;;4.90;;
4794;SDS011;2411;47.060;15.064;2023-09-30T06:58:10;10.37;;;5.20;;
4794;SDS011;2411;47.060;15.064;2023-09-30T07:00:37;7.80;;;5.20;;
4794;SDS011;2411;47.060;15.064;2023-09-30T07:03:05;7.97;;;5.27;;
4794;SDS011;2411;47.060;15.064;2023-09-30T07:05:33;9.33;;;5.03;;
4794;SDS011;2411;47.060;15.064;2023-09-30T07:08:00;6.87;;;5.03;;
4794;SDS011;2411;47.060;15.064;2023-09-30T07:10:28;8.37;;;6.37;;
4794;SDS011;2411;47.060;15.064;2023-09-30T07:12:58;11.20;;;6.10;;
4794;SDS011;2411;47.060;15.064;2023-09-30T07:15:29;8.13;;;5.90;;
4794;SDS011;2411;47.060;15.064;2023-09-30T07:17:56;8.57;;;4.90;;
4794;SDS011;2411;47.060;15.064;2023-09-30T07:20:23;9.27;;;5.67;;
4794;SDS011;2411;47.060;15.064;2023-09-30T07:22:51;8.97;;;5.40;;
4794;SDS011;2411;47.060;15.064;2023-09-30T07:25:39;10.10;;;4.90;;
4794;SDS011;2411;47.060;15.064;2023-09-30T07:28:06;8.20;;;4.80;;
4794;SDS011;2411;47.060;15.064;2023-09-30T07:30:38;7.40;;;5.73;;
4794;SDS011;2411;47.060;15.064;2023-09-30T07:33:07;9.90;;;5.87;;
4794;SDS011;2411;47.060;15.064;2023-09-30T07:35:34;10.20;;;5.63;;
4794;SDS011;2411;47.060;15.064;2023-09-30T07:38:03;6.77;;;4.77;;
4794;SDS011;2411;47.060;15.064;2023-09-30T07:40:31;15.40;;;5.97;;
4794;SDS011;2411;47.060;15.064;2023-09-30T07:42:59;8.27;;;4.80;;
4794;SDS011;2411;47.060;15.064;2023-09-30T07:45:26;8.40;;;5.67;;
4794;SDS011;2411;47.060;15.064;2023-09-30T07:47:55;7.83;;;5.30;;
4794;SDS011;2411;47.060;15.064;2023-09-30T07:50:22;6.50;;;5.67;;
4794;SDS011;2411;47.060;15.064;2023-09-30T07:52:49;7.90;;;5.70;;
4794;SDS011;2411;47.060;15.064;2023-09-30T07:55:17;8.30;;;4.97;;
4794;SDS011;2411;47.060;15.064;2023-09-30T07:57:44;8.17;;;5.13;;
4794;SDS011;2411;47.060;15.064;2023-09-30T08:00:13;5.73;;;4.73;;
4794;SDS011;2411;47.060;15.064;2023-09-30T08:02:44;6.10;;;4.97;;
4794;SDS011;2411;47.060;15.064;2023-09-30T08:05:12;8.30;;;5.10;;
4794;SDS011;2411;47.060;15.064;2023-09-30T08:07:39;10.47;;;5.20;;
4794;SDS011;2411;47.060;15.064;2023-09-30T08:10:07;7.03;;;4.40;;
4794;SDS011;2411;47.060;15.064;2023-09-30T08:12:41;10.20;;;5.47;;
4794;SDS011;2411;47.060;15.064;2023-09-30T08:15:09;8.10;;;4.87;;
4794;SDS011;2411;47.060;15.064;2023-09-30T08:17:40;5.67;;;4.23;;
4794;SDS011;2411;47.060;15.064;2023-09-30T08:20:07;12.33;;;5.20;;
4794;SDS011;2411;47.060;15.064;2023-09-30T08:22:36;12.33;;;5.10;;
4794;SDS011;2411;47.060;15.064;2023-09-30T08:25:04;7.27;;;5.20;;
4794;SDS011;2411;47.060;15.064;2023-09-30T08:27:32;9.97;;;6.00;;
4794;SDS011;2411;47.060;15.064;2023-09-30T08:30:00;10.40;;;5.70;;
4794;SDS011;2411;47.060;15.064;2023-09-30T08:32:32;16.53;;;5.50;;
4794;SDS011;2411;47.060;15.064;2023-09-30T08:35:01;12.80;;;5.87;;
4794;SDS011;2411;47.060;15.064;2023-09-30T08:37:30;8.73;;;5.10;;
4794;SDS011;2411;47.060;15.064;2023-09-30T08:39:58;8.60;;;5.53;;
4794;SDS011;2411;47.060;15.064;2023-09-30T08:42:26;6.93;;;4.67;;
4794;SDS011;2411;47.060;15.064;2023-09-30T08:45:01;8.40;;;4.63;;
4794;SDS011;2411;47.060;15.064;2023-09-30T08:47:31;6.23;;;4.80;;
4794;SDS011;2411;47.060;15.064;2023-09-30T08:50:00;8.43;;;5.83;;
4794;SDS011;2411;47.060;15.064;2023-09-30T08:52:33;8.77;;;5.27;;
4794;SDS011;2411;47.060;15.064;2023-09-30T08:55:07;9.73;;;5.33;;
4794;SDS011;2411;47.060;15.064;2023-09-30T08:57:39;8.23;;;4.77;;
4794;SDS011;2411;47.060;15.064;2023-09-30T09:00:09;7.47;;;5.27;;
4794;SDS011;2411;47.060;15.064;2023-09-30T09:02:40;8.83;;;5.30;;
4794;SDS011;2411;47.060;15.064;2023-09-30T09:05:08;7.10;;;5.03;;
4794;SDS011;2411;47.060;15.064;2023-09-30T09:07:36;8.90;;;5.30;;
4794;SDS011;2411;47.060;15.064;2023-09-30T09:10:04;8.20;;;4.97;;
4794;SDS011;2411;47.060;15.064;2023-09-30T09:12:33;7.47;;;5.17;;
4794;SDS011;2411;47.060;15.064;2023-09-30T09:15:01;5.57;;;4.80;;
4794;SDS011;2411;47.060;15.064;2023-09-30T09:17:40;8.23;;;4.83;;
4794;SDS011;2411;47.060;15.064;2023-09-30T09:20:16;6.80;;;4.63;;
4794;SDS011;2411;47.060;15.064;2023-09-30T09:22:49;12.17;;;6.20;;
4794;SDS011;2411;47.060;15.064;2023-09-30T09:25:20;6.00;;;4.33;;
4794;SDS011;2411;47.060;15.064;2023-09-30T09:27:51;6.70;;;5.07;;
4794;SDS011;2411;47.060;15.064;2023-09-30T09:30:22;6.80;;;5.30;;
4794;SDS011;2411;47.060;15.064;2023-09-30T09:33:03;6.83;;;5.57;;
4794;SDS011;2411;47.060;15.064;2023-09-30T09:35:32;9.83;;;5.80;;
4794;SDS011;2411;47.060;15.064;2023-09-30T09:38:01;8.57;;;5.00;;
4794;SDS011;2411;47.060;15.064;2023-09-30T09:40:30;9.20;;;5.40;;
4794;SDS011;2411;47.060;15.064;2023-09-30T09:43:02;7.70;;;5.50;;
4794;SDS011;2411;47.060;15.064;2023-09-30T09:45:33;5.50;;;4.87;;
4794;SDS011;2411;47.060;15.064;2023-09-30T09:48:01;7.50;;;5.60;;
4794;SDS011;2411;47.060;15.064;2023-09-30T09:50:31;7.33;;;4.57;;
4794;SDS011;2411;47.060;15.064;2023-09-30T09:52:59;9.57;;;5.10;;
4794;SDS011;2411;47.060;15.064;2023-09-30T09:55:27;7.83;;;4.80;;
4794;SDS011;2411;47.060;15.064;2023-09-30T09:57:54;11.20;;;5.80;;
4794;SDS011;2411;47.060;15.064;2023-09-30T10:00:25;8.70;;;5.37;;
4794;SDS011;2411;47.060;15.064;2023-09-30T10:02:54;8.27;;;5.60;;
4794;SDS011;2411;47.060;15.064;2023-09-30T10:05:21;7.20;;;5.60;;
4794;SDS011;2411;47.060;15.064;2023-09-30T10:07:53;7.43;;;5.00;;
4794;SDS011;2411;47.060;15.064;2023-09-30T10:10:27;7.70;;;5.50;;
4794;SDS011;2411;47.060;15.064;2023-09-30T10:12:55;12.57;;;5.93;;
4794;SDS011;2411;47.060;15.064;2023-09-30T10:20:39;7.80;;;4.77;;
4794;SDS011;2411;47.060;15.064;2023-09-30T10:25:45;8.67;;;5.47;;
4794;SDS011;2411;47.060;15.064;2023-09-30T10:28:32;6.60;;;4.23;;
4794;SDS011;2411;47.060;15.064;2023-09-30T10:31:09;12.30;;;5.20;;
4794;SDS011;2411;47.060;15.064;2023-09-30T10:36:33;7.80;;;4.67;;
4794;SDS011;2411;47.060;15.064;2023-09-30T10:39:01;7.00;;;5.00;;
4794;SDS011;2411;47.060;15.064;2023-09-30T10:46:52;5.70;;;4.70;;
4794;SDS011;2411;47.060;15.064;2023-09-30T10:51:51;7.90;;;5.47;;
4794;SDS011;2411;47.060;15.064;2023-09-30T10:54:26;13.77;;;4.83;;
4794;SDS011;2411;47.060;15.064;2023-09-30T10:56:58;5.50;;;4.60;;
4794;SDS011;2411;47.060;15.064;2023-09-30T10:59:27;6.47;;;5.00;;
4794;SDS011;2411;47.060;15.064;2023-09-30T11:01:57;6.33;;;4.70;;
4794;SDS011;2411;47.060;15.064;2023-09-30T11:04:25;9.83;;;5.43;;
4794;SDS011;2411;47.060;15.064;2023-09-30T11:06:55;6.80;;;4.83;;
4794;SDS011;2411;47.060;15.064;2023-09-30T11:09:23;7.40;;;4.80;;
4794;SDS011;2411;47.060;15.064;2023-09-30T11:11:52;11.10;;;4.60;;
4794;SDS011;2411;47.060;15.064;2023-09-30T11:14:22;7.10;;;4.80;;
4794;SDS011;2411;47.060;15.064;2023-09-30T11:17:02;7.57;;;4.73;;
4794;SDS011;2411;47.060;15.064;2023-09-30T11:19:37;6.03;;;5.20;;
4794;SDS011;2411;47.060;15.064;2023-09-30T11:22:17;7.63;;;4.73;;
4794;SDS011;2411;47.060;15.064;2023-09-30T11:24:45;12.23;;;5.23;;
4794;SDS011;2411;47.060;15.064;2023-09-30T11:27:13;10.40;;;5.90;;
4794;SDS011;2411;47.060;15.064;2023-09-30T11:29:51;8.80;;;5.33;;
4794;SDS011;2411;47.060;15.064;2023-09-30T11:32:25;7.57;;;5.27;;
4794;SDS011;2411;47.060;15.064;2023-09-30T11:34:54;8.20;;;5.70;;
4794;SDS011;2411;47.060;15.064;2023-09-30T11:37:21;12.00;;;5.83;;
4794;SDS011;2411;47.060;15.064;2023-09-30T11:39:49;8.30;;;5.00;;
4794;SDS011;2411;47.060;15.064;2023-09-30T11:42:17;7.50;;;4.80;;
4794;SDS011;2411;47.060;15.064;2023-09-30T11:44:46;6.73;;;5.10;;
4794;SDS011;2411;47.060;15.064;2023-09-30T11:47:14;12.70;;;5.60;;
4794;SDS011;2411;47.060;15.064;2023-09-30T11:49:45;7.47;;;4.80;;
4794;SDS011;2411;47.060;15.064;2023-09-30T11:52:25;10.23;;;5.30;;
4794;SDS011;2411;47.060;15.064;2023-09-30T11:54:54;6.80;;;4.70;;
4794;SDS011;2411;47.060;15.064;2023-09-30T11:57:23;6.63;;;4.80;;
4794;SDS011;2411;47.060;15.064;2023-09-30T11:59:50;9.67;;;6.07;;
4794;SDS011;2411;47.060;15.064;2023-09-30T12:02:17;8.57;;;5.13;;
4794;SDS011;2411;47.060;15.064;2023-09-30T12:04:45;7.10;;;4.73;;
4794;SDS011;2411;47.060;15.064;2023-09-30T12:07:16;6.23;;;5.00;;
4794;SDS011;2411;47.060;15.064;2023-09-30T12:09:43;8.80;;;5.50;;
4794;SDS011;2411;47.060;15.064;2023-09-30T12:12:11;7.10;;;5.00;;
4794;SDS011;2411;47.060;15.064;2023-09-30T12:14:42;7.67;;;4.60;;
4794;SDS011;2411;47.060;15.064;2023-09-30T12:17:09;7.47;;;4.90;;
4794;SDS011;2411;47.060;15.064;2023-09-30T12:19:39;7.30;;;5.30;;
4794;SDS011;2411;47.060;15.064;2023-09-30T12:22:08;9.30;;;6.10;;
4794;SDS011;2411;47.060;15.064;2023-09-30T12:24:37;8.27;;;5.00;;
4794;SDS011;2411;47.060;15.064;2023-09-30T12:27:06;7.90;;;4.30;;
4794;SDS011;2411;47.060;15.064;2023-09-30T12:29:34;7.80;;;4.70;;
4794;SDS011;2411;47.060;15.064;2023-09-30T12:32:01;5.50;;;4.13;;
4794;SDS011;2411;47.060;15.064;2023-09-30T12:34:29;6.57;;;4.47;;
4794;SDS011;2411;47.060;15.064;2023-09-30T12:36:59;9.33;;;5.03;;
4794;SDS011;2411;47.060;15.064;2023-09-30T12:39:26;7.03;;;4.73;;
4794;SDS011;2411;47.060;15.064;2023-09-30T12:41:57;7.50;;;4.63;;
4794;SDS011;2411;47.060;15.064;2023-09-30T12:44:24;7.03;;;4.77;;
4794;SDS011;2411;47.060;15.064;2023-09-30T12:46:51;8.10;;;4.90;;
4794;SDS011;2411;47.060;15.064;2023-09-30T12:49:19;8.90;;;5.47;;
4794;SDS011;2411;47.060;15.064;2023-09-30T12:51:47;9.10;;;5.67;;
4794;SDS011;2411;47.060;15.064;2023-09-30T12:54:14;8.90;;;5.30;;
4794;SDS011;2411;47.060;15.064;2023-09-30T12:56:44;7.77;;;5.30;;
4794;SDS011;2411;47.060;15.064;2023-09-30T12:59:13;9.83;;;5.00;;
4794;SDS011;2411;47.060;15.064;2023-09-30T13:01:40;9.97;;;5.50;;
4794;SDS011;2411;47.060;15.064;2023-09-30T13:04:08;9.43;;;5.40;;
4794;SDS011;2411;47.060;15.064;2023-09-30T13:06:35;8.27;;;5.40;;
4794;SDS011;2411;47.060;15.064;2023-09-30T13:09:03;7.23;;;5.03;;
4794;SDS011;2411;47.060;15.064;2023-09-30T13:11:35;7.17;;;4.73;;
4794;SDS011;2411;47.060;15.064;2023-09-30T13:14:04;8.90;;;6.00;;
4794;SDS011;2411;47.060;15.064;2023-09-30T13:16:34;9.97;;;5.53;;
4794;SDS011;2411;47.060;15.064;2023-09-30T13:19:01;7.30;;;4.43;;
4794;SDS011;2411;47.060;15.064;2023-09-30T13:21:29;7.57;;;5.13;;
4794;SDS011;2411;47.060;15.064;2023-09-30T13:23:57;8.73;;;5.57;;
4794;SDS011;2411;47.060;15.064;2023-09-30T13:26:24;7.83;;;5.63;;
4794;SDS011;2411;47.060;15.064;2023-09-30T13:28:52;9.00;;;5.80;;
4794;SDS011;2411;47.060;15.064;2023-09-30T13:31:19;7.90;;;5.17;;
4794;SDS011;2411;47.060;15.064;2023-09-30T13:33:46;10.27;;;5.13;;
4794;SDS011;2411;47.060;15.064;2023-09-30T13:36:14;8.77;;;5.73;;
4794;SDS011;2411;47.060;15.064;2023-09-30T13:38:42;9.70;;;5.53;;
4794;SDS011;2411;47.060;15.064;2023-09-30T13:41:09;7.13;;;5.67;;
4794;SDS011;2411;47.060;15.064;2023-09-30T13:43:36;7.37;;;5.50;;
4794;SDS011;2411;47.060;15.064;2023-09-30T13:46:04;13.73;;;5.80;;
4794;SDS011;2411;47.060;15.064;2023-09-30T13:48:33;11.03;;;7.90;;
4794;SDS011;2411;47.060;15.064;2023-09-30T13:51:10;10.00;;;8.00;;
4794;SDS011;2411;47.060;15.064;2023-09-30T13:53:38;8.60;;;6.50;;
4794;SDS011;2411;47.060;15.064;2023-09-30T13:56:06;10.87;;;7.40;;
4794;SDS011;2411;47.060;15.064;2023-09-30T13:58:34;15.10;;;10.60;;
4794;SDS011;2411;47.060;15.064;2023-09-30T14:01:01;11.40;;;7.30;;
4794;SDS011;2411;47.060;15.064;2023-09-30T14:03:29;11.87;;;6.10;;
4794;SDS011;2411;47.060;15.064;2023-09-30T14:05:56;10.33;;;6.53;;
4794;SDS011;2411;47.060;15.064;2023-09-30T14:08:24;10.73;;;6.20;;
4794;SDS011;2411;47.060;15.064;2023-09-30T14:10:51;10.80;;;9.37;;
4794;SDS011;2411;47.060;15.064;2023-09-30T14:13:19;13.40;;;11.07;;
4794;SDS011;2411;47.060;15.064;2023-09-30T14:15:46;12.20;;;9.33;;
4794;SDS011;2411;47.060;15.064;2023-09-30T14:18:14;14.33;;;8.60;;
4794;SDS011;2411;47.060;15.064;2023-09-30T14:20:42;14.70;;;12.00;;
4794;SDS011;2411;47.060;15.064;2023-09-30T14:23:09;15.20;;;10.30;;
4794;SDS011;2411;47.060;15.064;2023-09-30T14:25:36;15.83;;;12.70;;
4794;SDS011;2411;47.060;15.064;2023-09-30T14:28:04;15.30;;;13.67;;
4794;SDS011;2411;47.060;15.064;2023-09-30T14:30:31;12.33;;;8.03;;
4794;SDS011;2411;47.060;15.064;2023-09-30T14:33:00;11.13;;;6.63;;
4794;SDS011;2411;47.060;15.064;2023-09-30T14:35:27;11.33;;;8.37;;
4794;SDS011;2411;47.060;15.064;2023-09-30T14:37:54;11.33;;;6.80;;
4794;SDS011;2411;47.060;15.064;2023-09-30T14:40:23;11.47;;;7.23;;
4794;SDS011;2411;47.060;15.064;2023-09-30T14:42:50;11.07;;;6.70;;
4794;SDS011;2411;47.060;15.064;2023-09-30T14:45:18;15.00;;;9.70;;
4794;SDS011;2411;47.060;15.064;2023-09-30T14:47:45;11.00;;;6.90;;
4794;SDS011;2411;47.060;15.064;2023-09-30T14:50:12;11.17;;;5.70;;
4794;SDS011;2411;47.060;15.064;2023-09-30T14:52:39;11.00;;;6.53;;
4794;SDS011;2411;47.060;15.064;2023-09-30T14:55:07;11.20;;;6.77;;
4794;SDS011;2411;47.060;15.064;2023-09-30T14:57:35;9.80;;;6.40;;
4794;SDS011;2411;47.060;15.064;2023-09-30T15:00:03;10.60;;;6.23;;
4794;SDS011;2411;47.060;15.064;2023-09-30T15:02:32;9.17;;;5.80;;
4794;SDS011;2411;47.060;15.064;2023-09-30T15:05:00;11.00;;;5.77;;
4794;SDS011;2411;47.060;15.064;2023-09-30T15:07:27;9.20;;;6.20;;
4794;SDS011;2411;47.060;15.064;2023-09-30T15:09:54;10.27;;;6.30;;
4794;SDS011;2411;47.060;15.064;2023-09-30T15:12:22;8.40;;;5.80;;
4794;SDS011;2411;47.060;15.064;2023-09-30T15:14:49;13.57;;;6.10;;
4794;SDS011;2411;47.060;15.064;2023-09-30T15:17:18;12.23;;;6.10;;
4794;SDS011;2411;47.060;15.064;2023-09-30T15:19:45;9.63;;;5.87;;
4794;SDS011;2411;47.060;15.064;2023-09-30T15:22:12;9.80;;;5.30;;
4794;SDS011;2411;47.060;15.064;2023-09-30T15:24:41;8.10;;;5.47;;
4794;SDS011;2411;47.060;15.064;2023-09-30T15:27:08;9.90;;;5.67;;
4794;SDS011;2411;47.060;15.064;2023-09-30T15:29:36;11.03;;;5.70;;